Time,TemperatureF,DewpointF,PressureIn,WindDirection,WindDirectionDegrees,WindSpeedMPH,WindSpeedGustMPH,Humidity,HourlyPrecipIn,Conditions,Clouds,dailyrainin,SoftwareType,DateUTC
2013-08-23 00:02:00,50.0,42.0,-100.00,SW,224,9.0,49.0,75,0.01,,,0.01,,2013-08-23 06:02:00,
2013-08-23 00:12:00,50.0,42.0,-100.00,SW,224,9.0,49.0,75,0.01,,,0.01,,2013-08-23 06:12:00,
2013-08-23 00:22:00,50.0,42.0,-100.00,SW,224,9.0,49.0,75,0.01,,,0.01,,2013-08-23 06:22:00,
2013-08-23 00:52:00,47.0,45.0,-100.00,East,101,6.0,10.0,92,0.09,,,0.10,,2013-08-23 06:52:00,
2013-08-23 01:01:00,47.0,45.0,-100.00,East,101,6.0,10.0,92,0.09,,,0.10,,2013-08-23 07:01:00,
2013-08-23 01:12:00,47.0,45.0,-100.00,East,101,6.0,10.0,92,0.09,,,0.10,,2013-08-23 07:12:00,
2013-08-23 01:22:00,47.0,45.0,-100.00,East,101,6.0,10.0,92,0.09,,,0.10,,2013-08-23 07:22:00,
2013-08-23 01:52:00,49.0,43.0,-100.00,ESE,115,5.0,11.0,79,0.00,,,0.10,,2013-08-23 07:52:00,
2013-08-23 02:02:00,49.0,43.0,-100.00,ESE,115,5.0,11.0,79,0.00,,,0.10,,2013-08-23 08:02:00,
2013-08-23 02:13:00,49.0,43.0,-100.00,ESE,115,5.0,11.0,79,0.00,,,0.10,,2013-08-23 08:13:00,
2013-08-23 02:22:00,49.0,43.0,-100.00,ESE,115,5.0,11.0,79,0.00,,,0.10,,2013-08-23 08:22:00,
2013-08-23 02:52:00,51.0,40.0,-100.00,SE,140,8.0,13.0,67,0.00,,,0.10,,2013-08-23 08:52:00,
2013-08-23 03:01:00,51.0,40.0,-100.00,SE,140,8.0,13.0,67,0.00,,,0.10,,2013-08-23 09:01:00,
2013-08-23 03:12:00,51.0,40.0,-100.00,SE,140,8.0,13.0,67,0.00,,,0.10,,2013-08-23 09:12:00,
2013-08-23 03:21:00,51.0,40.0,-100.00,SE,140,8.0,13.0,67,0.00,,,0.10,,2013-08-23 09:21:00,
2013-08-23 03:53:00,53.0,42.0,-100.00,SSE,161,11.0,17.0,67,0.00,,,0.10,,2013-08-23 09:53:00,
2013-08-23 04:03:00,53.0,42.0,-100.00,SSE,161,11.0,17.0,67,0.00,,,0.10,,2013-08-23 10:03:00,
2013-08-23 04:13:00,53.0,42.0,-100.00,SSE,161,11.0,17.0,67,0.00,,,0.10,,2013-08-23 10:13:00,
2013-08-23 04:23:00,53.0,42.0,-100.00,SSE,161,11.0,17.0,67,0.00,,,0.10,,2013-08-23 10:23:00,
2013-08-23 04:53:00,53.0,42.0,-100.00,SSE,161,11.0,16.0,65,0.00,,,0.10,,2013-08-23 10:53:00,
2013-08-23 05:02:00,53.0,42.0,-100.00,SSE,161,11.0,16.0,65,0.00,,,0.10,,2013-08-23 11:02:00,
2013-08-23 05:11:00,53.0,42.0,-100.00,SSE,161,11.0,16.0,65,0.00,,,0.10,,2013-08-23 11:11:00,
2013-08-23 05:22:00,53.0,42.0,-100.00,SSE,161,11.0,16.0,65,0.00,,,0.10,,2013-08-23 11:22:00,
2013-08-23 05:53:00,52.0,42.0,-100.00,ENE,74,3.0,19.0,69,0.00,,,0.10,,2013-08-23 11:53:00,
2013-08-23 06:01:00,52.0,42.0,-100.00,ENE,74,3.0,19.0,69,0.00,,,0.10,,2013-08-23 12:01:00,
2013-08-23 06:11:00,52.0,42.0,-100.00,ENE,74,3.0,19.0,69,0.00,,,0.10,,2013-08-23 12:11:00,
2013-08-23 06:22:00,52.0,42.0,-100.00,ENE,74,3.0,19.0,69,0.00,,,0.10,,2013-08-23 12:22:00,
2013-08-23 06:52:00,49.0,42.0,-100.00,East,87,1.0,-999.0,76,0.00,,,0.10,,2013-08-23 12:52:00,
2013-08-23 07:02:00,49.0,42.0,-100.00,East,87,1.0,-999.0,76,0.00,,,0.10,,2013-08-23 13:02:00,
2013-08-23 07:12:00,49.0,42.0,-100.00,East,87,1.0,-999.0,76,0.00,,,0.10,,2013-08-23 13:12:00,
2013-08-23 07:22:00,49.0,42.0,-100.00,East,87,1.0,-999.0,76,0.00,,,0.10,,2013-08-23 13:22:00,
2013-08-23 07:53:00,48.0,43.0,-100.00,East,101,5.0,-999.0,83,0.00,,,0.10,,2013-08-23 13:53:00,
2013-08-23 08:02:00,48.0,43.0,-100.00,East,101,5.0,-999.0,83,0.00,,,0.10,,2013-08-23 14:02:00,
2013-08-23 08:12:00,48.0,43.0,-100.00,East,101,5.0,-999.0,83,0.00,,,0.10,,2013-08-23 14:12:00,
2013-08-23 08:21:00,48.0,43.0,-100.00,East,101,5.0,-999.0,83,0.00,,,0.10,,2013-08-23 14:21:00,
2013-08-23 08:52:00,53.0,46.0,-100.00,East,83,4.0,9.0,76,0.00,,,0.10,,2013-08-23 14:52:00,
2013-08-23 09:01:00,53.0,46.0,-100.00,East,83,4.0,9.0,76,0.00,,,0.10,,2013-08-23 15:01:00,
2013-08-23 09:11:00,53.0,46.0,-100.00,East,83,4.0,9.0,76,0.00,,,0.10,,2013-08-23 15:11:00,
2013-08-23 09:22:00,53.0,46.0,-100.00,East,83,4.0,9.0,76,0.00,,,0.10,,2013-08-23 15:22:00,
2013-08-23 09:54:00,62.0,46.0,-100.00,WSW,245,4.0,6.0,56,0.00,,,0.10,,2013-08-23 15:54:00,
2013-08-23 10:05:00,62.0,46.0,-100.00,WSW,245,4.0,6.0,56,0.00,,,0.10,,2013-08-23 16:05:00,
2013-08-23 10:13:00,62.0,46.0,-100.00,WSW,245,4.0,6.0,56,0.00,,,0.10,,2013-08-23 16:13:00,
2013-08-23 10:24:00,62.0,46.0,-100.00,WSW,245,4.0,6.0,56,0.00,,,0.10,,2013-08-23 16:24:00,
2013-08-23 10:53:00,64.0,45.0,-100.00,SW,223,6.0,11.0,50,0.00,,,0.10,,2013-08-23 16:53:00,
2013-08-23 11:04:00,64.0,45.0,-100.00,SW,223,6.0,11.0,50,0.00,,,0.10,,2013-08-23 17:04:00,
2013-08-23 11:13:00,64.0,45.0,-100.00,SW,223,6.0,11.0,50,0.00,,,0.10,,2013-08-23 17:13:00,
2013-08-23 11:23:00,64.0,45.0,-100.00,SW,223,6.0,11.0,50,0.00,,,0.10,,2013-08-23 17:23:00,
2013-08-23 11:54:00,64.0,43.0,-100.00,SW,234,8.0,14.0,46,0.00,,,0.10,,2013-08-23 17:54:00,
2013-08-23 12:02:00,64.0,43.0,-100.00,SW,234,8.0,14.0,46,0.00,,,0.10,,2013-08-23 18:02:00,
2013-08-23 12:12:00,64.0,43.0,-100.00,SW,234,8.0,14.0,46,0.00,,,0.10,,2013-08-23 18:12:00,
2013-08-23 12:22:00,64.0,43.0,-100.00,SW,234,8.0,14.0,46,0.00,,,0.10,,2013-08-23 18:22:00,
2013-08-23 12:52:00,67.0,43.0,-100.00,WSW,256,6.0,15.0,41,0.00,,,0.10,,2013-08-23 18:52:00,
2013-08-23 13:02:00,67.0,43.0,-100.00,WSW,256,6.0,15.0,41,0.00,,,0.10,,2013-08-23 19:02:00,
2013-08-23 13:12:00,67.0,43.0,-100.00,WSW,256,6.0,15.0,41,0.00,,,0.10,,2013-08-23 19:12:00,
2013-08-23 13:22:00,67.0,43.0,-100.00,WSW,256,6.0,15.0,41,0.00,,,0.10,,2013-08-23 19:22:00,
2013-08-23 13:52:00,69.0,46.0,-100.00,WNW,290,9.0,19.0,44,0.00,,,0.10,,2013-08-23 19:52:00,
2013-08-23 14:02:00,69.0,46.0,-100.00,WNW,290,9.0,19.0,44,0.00,,,0.10,,2013-08-23 20:02:00,
2013-08-23 14:12:00,69.0,46.0,-100.00,WNW,290,9.0,19.0,44,0.00,,,0.10,,2013-08-23 20:12:00,
2013-08-23 14:22:00,69.0,46.0,-100.00,WNW,290,9.0,19.0,44,0.00,,,0.10,,2013-08-23 20:22:00,
2013-08-23 14:52:00,70.0,45.0,-100.00,NW,313,7.0,17.0,40,0.00,,,0.10,,2013-08-23 20:52:00,
2013-08-23 15:02:00,70.0,45.0,-100.00,NW,313,7.0,17.0,40,0.00,,,0.10,,2013-08-23 21:02:00,
2013-08-23 15:11:00,70.0,45.0,-100.00,NW,313,7.0,17.0,40,0.00,,,0.10,,2013-08-23 21:11:00,
2013-08-23 15:22:00,70.0,45.0,-100.00,NW,313,7.0,17.0,40,0.00,,,0.10,,2013-08-23 21:22:00,
2013-08-23 15:54:00,64.0,41.0,-100.00,WNW,296,7.0,20.0,43,0.00,,,0.10,,2013-08-23 21:54:00,
2013-08-23 16:04:00,64.0,41.0,-100.00,WNW,296,7.0,20.0,43,0.00,,,0.10,,2013-08-23 22:04:00,
2013-08-23 16:13:00,64.0,41.0,-100.00,WNW,296,7.0,20.0,43,0.00,,,0.10,,2013-08-23 22:13:00,
2013-08-23 16:24:00,64.0,41.0,-100.00,WNW,296,7.0,20.0,43,0.00,,,0.10,,2013-08-23 22:24:00,
2013-08-23 16:53:00,58.0,41.0,-100.00,ESE,117,10.0,24.0,54,0.00,,,0.10,,2013-08-23 22:53:00,
2013-08-23 17:03:00,58.0,41.0,-100.00,ESE,117,10.0,24.0,54,0.00,,,0.10,,2013-08-23 23:03:00,
2013-08-23 17:12:00,58.0,41.0,-100.00,ESE,117,10.0,24.0,54,0.00,,,0.10,,2013-08-23 23:12:00,
2013-08-23 17:22:00,58.0,41.0,-100.00,ESE,117,10.0,24.0,54,0.00,,,0.10,,2013-08-23 23:22:00,
2013-08-23 17:54:00,54.0,41.0,-100.00,SSW,206,10.0,46.0,61,0.00,,,0.10,,2013-08-23 23:54:00,
2013-08-23 18:02:00,54.0,41.0,-100.00,SSW,206,10.0,46.0,61,0.00,,,0.10,,2013-08-24 00:02:00,
2013-08-23 18:11:00,54.0,41.0,-100.00,SSW,206,10.0,46.0,61,0.00,,,0.10,,2013-08-24 00:11:00,
2013-08-23 18:21:00,54.0,41.0,-100.00,SSW,206,10.0,46.0,61,0.00,,,0.10,,2013-08-24 00:21:00,
2013-08-23 19:22:00,60.0,39.0,-100.00,South,185,3.0,20.0,45,0.00,,,0.10,,2013-08-24 01:22:00,
2013-08-23 19:53:00,52.0,43.0,-100.00,NW,316,7.0,24.0,71,0.00,,,0.10,,2013-08-24 01:53:00,
2013-08-23 20:03:00,52.0,43.0,-100.00,NW,316,7.0,24.0,71,0.00,,,0.10,,2013-08-24 02:03:00,
2013-08-23 20:12:00,52.0,43.0,-100.00,NW,316,7.0,24.0,71,0.00,,,0.10,,2013-08-24 02:12:00,
2013-08-23 20:22:00,52.0,43.0,-100.00,NW,316,7.0,24.0,71,0.00,,,0.10,,2013-08-24 02:22:00,
2013-08-23 20:52:00,48.0,44.0,-100.00,SE,125,4.0,13.0,85,0.00,,,0.10,,2013-08-24 02:52:00,
2013-08-23 21:02:00,48.0,44.0,-100.00,SE,125,4.0,13.0,85,0.00,,,0.10,,2013-08-24 03:02:00,
2013-08-23 21:12:00,48.0,44.0,-100.00,SE,125,4.0,13.0,85,0.00,,,0.10,,2013-08-24 03:12:00,
2013-08-23 21:22:00,48.0,44.0,-100.00,SE,125,4.0,13.0,85,0.00,,,0.10,,2013-08-24 03:22:00,
2013-08-23 21:55:00,48.0,43.0,-100.00,East,79,2.0,8.0,83,0.00,,,0.10,,2013-08-24 03:55:00,
2013-08-23 22:04:00,48.0,43.0,-100.00,East,79,2.0,8.0,83,0.00,,,0.10,,2013-08-24 04:04:00,
2013-08-23 22:14:00,48.0,43.0,-100.00,East,79,2.0,8.0,83,0.00,,,0.10,,2013-08-24 04:14:00,
2013-08-23 22:24:00,48.0,43.0,-100.00,East,79,2.0,8.0,83,0.00,,,0.10,,2013-08-24 04:24:00,
2013-08-23 22:54:00,47.0,44.0,-100.00,SSW,208,15.0,24.0,88,0.06,,,0.16,,2013-08-24 04:54:00,
2013-08-23 23:03:00,47.0,44.0,-100.00,SSW,208,15.0,24.0,88,0.06,,,0.16,,2013-08-24 05:03:00,
2013-08-23 23:13:00,47.0,44.0,-100.00,SSW,208,15.0,24.0,88,0.06,,,0.16,,2013-08-24 05:13:00,
2013-08-23 23:23:00,47.0,44.0,-100.00,SSW,208,15.0,24.0,88,0.06,,,0.16,,2013-08-24 05:23:00,
2013-08-23 23:53:00,47.0,44.0,-100.00,ESE,106,5.0,13.0,89,0.04,,,0.19,,2013-08-24 05:53:00,